Time;durP1;ratioP1;P1;durP2;ratioP2;P2;SDS_P1;SDS_P2;PMS_P1;PMS_P2;Temp;Humidity;BMP_temperature;BMP_pressure;BME280_temperature;BME280_humidity;BME280_pressure;Samples;Min_cycle;Max_cycle;Signal;HPM_P1;HPM_P2
2022/06/22 00:02:06;;;;;;;5.95;4.05;;;;;;;;;;5101136;27;20117;-74
2022/06/22 00:04:48;;;;;;;6.35;4.03;;;;;;;;;;5101151;28;20374;-75
2022/06/22 00:07:20;;;;;;;5.30;3.75;;;;;;;;;;5103505;27;20489;-76
2022/06/22 00:09:46;;;;;;;6.05;4.05;;;;;;;;;;5096200;27;20713;-73
2022/06/22 00:12:24;;;;;;;5.32;3.70;;;;;;;;;;5098780;28;20035;-75
2022/06/22 00:14:53;;;;;;;5.80;3.83;;;;;;;;;;5097450;27;20514;-76
2022/06/22 00:17:37;;;;;;;6.68;4.18;;;;;;;;;;5100549;27;20505;-74
2022/06/22 00:20:25;;;;;;;4.68;3.60;;;;;;;;;;5097874;27;20028;-76
2022/06/22 00:23:16;;;;;;;6.40;3.95;;;;;;;;;;5098368;27;20020;-72
2022/06/22 00:25:42;;;;;;;6.43;4.07;;;;;;;;;;5097562;27;20027;-74
2022/06/22 00:28:31;;;;;;;5.05;3.60;;;;;;;;;;5098660;28;20046;-74
2022/06/22 00:31:23;;;;;;;6.75;4.30;;;;;;;;;;5094827;27;21011;-75
2022/06/22 00:34:05;;;;;;;6.25;3.90;;;;;;;;;;5098888;27;20047;-72
2022/06/22 00:37:02;;;;;;;5.78;4.18;;;;;;;;;;5048558;28;20903;-75
2022/06/22 00:39:28;;;;;;;6.95;4.15;;;;;;;;;;5040842;28;20037;-75
2022/06/22 00:42:14;;;;;;;6.13;4.10;;;;;;;;;;5041930;28;20017;-75
2022/06/22 00:44:44;;;;;;;5.18;3.67;;;;;;;;;;5043808;28;20029;-75
2022/06/22 00:47:26;;;;;;;8.32;4.07;;;;;;;;;;5041854;28;20120;-73
2022/06/22 00:49:58;;;;;;;5.65;3.83;;;;;;;;;;5043498;28;20071;-74
2022/06/22 00:52:35;;;;;;;7.22;3.60;;;;;;;;;;5037089;28;20033;-74
2022/06/22 00:55:02;;;;;;;6.05;3.67;;;;;;;;;;5038352;28;20121;-74
2022/06/22 00:57:35;;;;;;;5.75;3.70;;;;;;;;;;5040867;28;20049;-75
2022/06/22 01:00:14;;;;;;;6.60;3.67;;;;;;;;;;5038466;28;20533;-72
2022/06/22 01:02:53;;;;;;;5.63;3.55;;;;;;;;;;5042463;28;20141;-72
2022/06/22 01:05:50;;;;;;;6.32;3.75;;;;;;;;;;5041518;28;20021;-75
2022/06/22 01:08:24;;;;;;;6.15;3.97;;;;;;;;;;5041196;28;20393;-74
2022/06/22 01:14:26;;;;;;;4.82;3.47;;;;;;;;;;5042861;28;20056;-75
2022/06/22 01:16:56;;;;;;;5.60;3.63;;;;;;;;;;5042644;28;20083;-75
2022/06/22 01:19:41;;;;;;;5.28;3.55;;;;;;;;;;5039942;28;20048;-72
2022/06/22 01:22:17;;;;;;;6.50;3.70;;;;;;;;;;5041532;28;20033;-75
2022/06/22 01:25:03;;;;;;;7.20;3.80;;;;;;;;;;5054969;28;20033;-72
2022/06/22 01:27:35;;;;;;;5.18;3.80;;;;;;;;;;5041118;28;20033;-75
2022/06/22 01:30:16;;;;;;;8.25;3.83;;;;;;;;;;5037410;28;20096;-72
2022/06/22 01:32:43;;;;;;;6.13;3.72;;;;;;;;;;5050175;28;20056;-75
2022/06/22 01:35:29;;;;;;;4.88;3.47;;;;;;;;;;5040296;28;20045;-76
2022/06/22 01:37:54;;;;;;;5.97;3.78;;;;;;;;;;5038019;28;20025;-72
2022/06/22 01:40:36;;;;;;;5.30;3.90;;;;;;;;;;5036318;28;20814;-75
2022/06/22 01:43:09;;;;;;;4.90;4.00;;;;;;;;;;5038600;28;20029;-73
2022/06/22 01:45:52;;;;;;;6.38;3.90;;;;;;;;;;5035256;28;20029;-75
2022/06/22 01:48:24;;;;;;;5.70;3.85;;;;;;;;;;5023521;28;20068;-74
2022/06/22 01:51:08;;;;;;;6.78;3.90;;;;;;;;;;5023681;28;21501;-73
2022/06/22 01:53:39;;;;;;;6.25;4.00;;;;;;;;;;5017154;28;20074;-72
2022/06/22 01:56:39;;;;;;;6.07;3.85;;;;;;;;;;5028771;28;20504;-72
2022/06/22 01:59:23;;;;;;;6.20;3.63;;;;;;;;;;5026488;28;20032;-75
2022/06/22 02:02:01;;;;;;;7.70;4.07;;;;;;;;;;5026252;28;20029;-74
2022/06/22 02:04:44;;;;;;;6.07;4.00;;;;;;;;;;5026735;28;20048;-76
2022/06/22 02:10:29;;;;;;;5.43;3.60;;;;;;;;;;5023799;28;19928;-74
2022/06/22 02:13:04;;;;;;;5.65;4.28;;;;;;;;;;5025903;28;20129;-75
2022/06/22 02:15:29;;;;;;;4.88;3.95;;;;;;;;;;5022234;28;20041;-75
2022/06/22 02:17:57;;;;;;;5.75;4.35;;;;;;;;;;5028331;28;20049;-75
2022/06/22 02:20:32;;;;;;;6.85;3.97;;;;;;;;;;5022284;28;20029;-74
2022/06/22 02:23:07;;;;;;;7.35;4.07;;;;;;;;;;5024043;28;20493;-74
2022/06/22 02:25:39;;;;;;;4.90;3.50;;;;;;;;;;5024456;28;20028;-75
2022/06/22 02:28:05;;;;;;;7.90;4.28;;;;;;;;;;5028799;28;20021;-74
2022/06/22 02:30:30;;;;;;;5.80;4.35;;;;;;;;;;5024545;28;20126;-75
2022/06/22 02:32:56;;;;;;;5.78;3.85;;;;;;;;;;5025500;28;20028;-75
2022/06/22 02:35:21;;;;;;;6.25;4.10;;;;;;;;;;5025676;28;20564;-73
2022/06/22 02:37:53;;;;;;;5.65;3.90;;;;;;;;;;5025323;28;20028;-74
2022/06/22 02:40:25;;;;;;;7.43;3.70;;;;;;;;;;5018573;28;20486;-74
2022/06/22 02:45:37;;;;;;;6.30;3.97;;;;;;;;;;5021660;28;20421;-71
2022/06/22 02:48:25;;;;;;;6.22;4.00;;;;;;;;;;5028547;28;20582;-75
2022/06/22 02:51:13;;;;;;;5.30;4.05;;;;;;;;;;5025874;28;20492;-75
2022/06/22 02:53:41;;;;;;;6.25;4.13;;;;;;;;;;5026141;28;20025;-74
2022/06/22 02:56:14;;;;;;;6.40;4.85;;;;;;;;;;5025588;28;20037;-75
2022/06/22 02:58:39;;;;;;;7.13;4.00;;;;;;;;;;5026174;28;20037;-75
2022/06/22 03:01:14;;;;;;;6.07;4.63;;;;;;;;;;5022537;28;20037;-74
2022/06/22 03:03:44;;;;;;;6.00;3.97;;;;;;;;;;5012627;28;20037;-75
2022/06/22 03:06:13;;;;;;;6.65;4.93;;;;;;;;;;5025738;28;20361;-72
2022/06/22 03:08:38;;;;;;;7.18;4.53;;;;;;;;;;5023364;28;20467;-74
2022/06/22 03:11:07;;;;;;;6.22;4.53;;;;;;;;;;5019333;28;20041;-75
2022/06/22 03:13:45;;;;;;;6.20;4.57;;;;;;;;;;5023544;28;20542;-72
2022/06/22 03:16:33;;;;;;;7.38;5.00;;;;;;;;;;5022362;28;20029;-75
2022/06/22 03:19:04;;;;;;;6.50;4.53;;;;;;;;;;5024750;28;20037;-74
2022/06/22 03:21:31;;;;;;;6.68;4.40;;;;;;;;;;5025688;28;20052;-75
2022/06/22 03:24:10;;;;;;;6.82;4.68;;;;;;;;;;5023076;28;20025;-75
2022/06/22 03:26:41;;;;;;;5.57;4.28;;;;;;;;;;5022761;28;20030;-75
2022/06/22 03:29:28;;;;;;;6.63;4.45;;;;;;;;;;5027011;28;20033;-73
2022/06/22 03:32:08;;;;;;;6.97;4.40;;;;;;;;;;5026111;28;20108;-75
2022/06/22 03:34:40;;;;;;;7.60;4.50;;;;;;;;;;5022567;28;20041;-75
2022/06/22 03:37:17;;;;;;;7.85;4.88;;;;;;;;;;5038199;28;20278;-72
2022/06/22 03:39:49;;;;;;;7.88;4.82;;;;;;;;;;5015266;28;20040;-73
2022/06/22 03:42:24;;;;;;;7.28;4.78;;;;;;;;;;5022246;28;20059;-75
2022/06/22 03:45:01;;;;;;;7.70;4.47;;;;;;;;;;5021070;28;20108;-76
2022/06/22 03:47:51;;;;;;;7.90;4.55;;;;;;;;;;5023299;28;20509;-75
2022/06/22 03:51:08;;;;;;;8.05;4.60;;;;;;;;;;5024244;28;20029;-75
2022/06/22 03:53:43;;;;;;;7.78;4.55;;;;;;;;;;5011479;28;20069;-75
2022/06/22 03:56:17;;;;;;;7.38;4.90;;;;;;;;;;5042622;28;20021;-74
2022/06/22 03:58:46;;;;;;;7.70;5.07;;;;;;;;;;5022288;28;20620;-74
2022/06/22 04:01:12;;;;;;;8.45;4.95;;;;;;;;;;5026609;28;20543;-76
2022/06/22 04:03:38;;;;;;;7.35;4.57;;;;;;;;;;5024606;28;20055;-75
2022/06/22 04:06:04;;;;;;;8.13;5.10;;;;;;;;;;5024768;28;20478;-74
2022/06/22 04:08:30;;;;;;;6.68;4.13;;;;;;;;;;5022954;28;20432;-75
2022/06/22 04:11:04;;;;;;;6.35;5.10;;;;;;;;;;5021795;28;20036;-74
2022/06/22 04:13:46;;;;;;;6.80;4.47;;;;;;;;;;5021394;28;20025;-74
2022/06/22 04:16:17;;;;;;;5.82;4.68;;;;;;;;;;5018414;28;20032;-75
2022/06/22 04:18:49;;;;;;;7.60;4.60;;;;;;;;;;5021163;28;20452;-75
2022/06/22 04:21:22;;;;;;;6.37;4.40;;;;;;;;;;5024717;28;20051;-72
2022/06/22 04:23:56;;;;;;;6.88;4.70;;;;;;;;;;5021778;28;20033;-75
2022/06/22 04:26:30;;;;;;;6.65;4.60;;;;;;;;;;5023845;28;20397;-74
2022/06/22 04:29:16;;;;;;;6.85;4.80;;;;;;;;;;5022467;28;20041;-76
2022/06/22 04:32:18;;;;;;;6.72;4.90;;;;;;;;;;5025744;28;20025;-75
2022/06/22 04:34:56;;;;;;;6.57;4.28;;;;;;;;;;5021740;28;20081;-74
2022/06/22 04:37:36;;;;;;;8.73;5.35;;;;;;;;;;5023149;28;20029;-74
2022/06/22 04:40:30;;;;;;;7.38;5.07;;;;;;;;;;5019942;28;20075;-72
2022/06/22 04:43:00;;;;;;;7.90;5.00;;;;;;;;;;5019754;28;20040;-74
2022/06/22 04:45:36;;;;;;;7.78;4.82;;;;;;;;;;5024165;28;20064;-73
2022/06/22 04:48:24;;;;;;;7.55;5.15;;;;;;;;;;5026331;28;20025;-73
2022/06/22 04:50:53;;;;;;;8.13;5.00;;;;;;;;;;5038310;28;20120;-73
2022/06/22 04:53:44;;;;;;;6.00;4.90;;;;;;;;;;5023230;28;20067;-75
2022/06/22 04:56:12;;;;;;;8.20;5.30;;;;;;;;;;5017793;28;20175;-72
2022/06/22 04:58:51;;;;;;;7.47;5.18;;;;;;;;;;5039317;28;20025;-75
2022/06/22 05:01:24;;;;;;;7.88;5.45;;;;;;;;;;5021517;28;20037;-75
2022/06/22 05:03:51;;;;;;;;;;;;;;;;;;5026815;28;20033;-74
2022/06/22 05:06:27;;;;;;;9.48;5.50;;;;;;;;;;5016470;28;20420;-72
2022/06/22 05:08:58;;;;;;;8.57;5.43;;;;;;;;;;5019549;28;20609;-76
2022/06/22 05:11:32;;;;;;;7.97;5.57;;;;;;;;;;5019208;28;20041;-75
2022/06/22 05:13:59;;;;;;;12.55;5.60;;;;;;;;;;5023407;28;20040;-72
2022/06/22 05:16:28;;;;;;;6.88;5.18;;;;;;;;;;5021683;28;20053;-72
2022/06/22 05:18:55;;;;;;;7.45;5.43;;;;;;;;;;5028085;28;20033;-75
2022/06/22 05:21:39;;;;;;;8.77;5.45;;;;;;;;;;5024026;28;21401;-74
2022/06/22 05:24:09;;;;;;;6.47;5.15;;;;;;;;;;5020881;28;20390;-75
2022/06/22 05:26:35;;;;;;;10.55;5.28;;;;;;;;;;5021900;28;20021;-72
2022/06/22 05:29:04;;;;;;;8.75;5.22;;;;;;;;;;5026827;28;20029;-74
2022/06/22 05:31:35;;;;;;;7.10;5.05;;;;;;;;;;5025572;28;20029;-75
2022/06/22 05:34:14;;;;;;;8.50;5.28;;;;;;;;;;5025152;28;20456;-75
2022/06/22 05:36:48;;;;;;;6.88;5.07;;;;;;;;;;5024387;28;20513;-74
2022/06/22 05:39:14;;;;;;;8.60;5.75;;;;;;;;;;5023303;28;20030;-76
2022/06/22 05:41:46;;;;;;;8.75;5.65;;;;;;;;;;5027187;28;20786;-75
2022/06/22 05:44:15;;;;;;;6.45;4.97;;;;;;;;;;5026874;28;20061;-75
2022/06/22 05:46:49;;;;;;;7.10;5.50;;;;;;;;;;5027045;28;20048;-73
2022/06/22 05:49:17;;;;;;;9.43;5.63;;;;;;;;;;5021817;28;20100;-75
2022/06/22 05:51:49;;;;;;;9.50;6.10;;;;;;;;;;5024763;28;20029;-76
2022/06/22 05:54:26;;;;;;;7.93;5.60;;;;;;;;;;5026648;28;20025;-72
2022/06/22 05:56:57;;;;;;;10.45;5.60;;;;;;;;;;5028894;28;20053;-74
2022/06/22 05:59:55;;;;;;;7.88;5.97;;;;;;;;;;5023543;28;20029;-72
2022/06/22 06:02:44;;;;;;;11.07;6.55;;;;;;;;;;4999437;28;20044;-75
2022/06/22 06:05:43;;;;;;;10.27;6.22;;;;;;;;;;5026357;28;20552;-72
2022/06/22 06:08:19;;;;;;;9.82;6.20;;;;;;;;;;5031854;28;20112;-73
2022/06/22 06:10:45;;;;;;;9.07;5.88;;;;;;;;;;5025661;28;20112;-74
2022/06/22 06:13:28;;;;;;;10.07;6.20;;;;;;;;;;5029692;28;20159;-75
2022/06/22 06:15:59;;;;;;;9.48;7.20;;;;;;;;;;5030462;28;20124;-72
2022/06/22 06:18:31;;;;;;;10.25;6.78;;;;;;;;;;5028887;28;21653;-72
2022/06/22 06:21:04;;;;;;;9.77;6.82;;;;;;;;;;5029955;28;20033;-75
2022/06/22 06:23:42;;;;;;;9.13;6.72;;;;;;;;;;5029477;28;20080;-74
2022/06/22 06:29:32;;;;;;;7.93;6.40;;;;;;;;;;4970921;28;20039;-73
2022/06/22 06:32:05;;;;;;;10.85;6.93;;;;;;;;;;4972233;28;20487;-75
2022/06/22 06:34:35;;;;;;;10.52;7.43;;;;;;;;;;4999367;28;20409;-75
2022/06/22 06:37:17;;;;;;;9.45;6.38;;;;;;;;;;5028760;28;20049;-73
2022/06/22 06:39:45;;;;;;;10.93;7.00;;;;;;;;;;5029907;28;20036;-73
2022/06/22 06:42:23;;;;;;;9.15;6.80;;;;;;;;;;5033101;28;20083;-74
2022/06/22 06:44:50;;;;;;;10.80;6.80;;;;;;;;;;5028016;28;20021;-73
2022/06/22 06:47:25;;;;;;;12.77;6.50;;;;;;;;;;5030980;28;20024;-73
2022/06/22 06:49:57;;;;;;;11.25;7.30;;;;;;;;;;5026706;28;20041;-74
2022/06/22 06:52:44;;;;;;;9.65;7.35;;;;;;;;;;5027498;28;20048;-75
2022/06/22 06:55:19;;;;;;;8.85;6.82;;;;;;;;;;5029541;28;20035;-74
2022/06/22 06:58:37;;;;;;;10.25;6.90;;;;;;;;;;5031228;28;20033;-73
2022/06/22 07:01:04;;;;;;;9.10;6.80;;;;;;;;;;5021295;28;20877;-75
2022/06/22 07:03:40;;;;;;;11.27;7.28;;;;;;;;;;5032421;28;20029;-73
2022/06/22 07:06:06;;;;;;;9.68;7.40;;;;;;;;;;5027080;28;20021;-72
2022/06/22 07:08:37;;;;;;;9.70;7.00;;;;;;;;;;5024969;28;20041;-75
2022/06/22 07:11:12;;;;;;;8.85;6.55;;;;;;;;;;5025025;28;20040;-75
2022/06/22 07:13:45;;;;;;;10.30;6.82;;;;;;;;;;5032583;28;20033;-75
2022/06/22 07:16:15;;;;;;;10.13;6.75;;;;;;;;;;5027457;28;20030;-75
2022/06/22 07:18:44;;;;;;;8.98;6.60;;;;;;;;;;5031374;28;20120;-75
2022/06/22 07:21:19;;;;;;;9.43;6.70;;;;;;;;;;5030857;28;20059;-72
2022/06/22 07:24:12;;;;;;;10.25;7.38;;;;;;;;;;5034630;28;20068;-75
2022/06/22 07:26:49;;;;;;;9.63;7.13;;;;;;;;;;5032658;28;20029;-75
2022/06/22 07:29:46;;;;;;;8.60;6.47;;;;;;;;;;5033303;28;20087;-74
2022/06/22 07:32:15;;;;;;;9.73;6.55;;;;;;;;;;5030341;28;20022;-75
2022/06/22 07:34:54;;;;;;;11.23;6.68;;;;;;;;;;5029763;28;20107;-74
2022/06/22 07:37:22;;;;;;;10.98;7.15;;;;;;;;;;5031665;28;20033;-75
2022/06/22 07:39:57;;;;;;;8.48;6.22;;;;;;;;;;5031409;28;20159;-75
2022/06/22 07:42:22;;;;;;;7.95;6.32;;;;;;;;;;5032915;28;20091;-72
2022/06/22 07:44:48;;;;;;;8.52;6.05;;;;;;;;;;5031541;28;20069;-73
2022/06/22 07:47:36;;;;;;;8.40;5.35;;;;;;;;;;5030580;28;20416;-76
2022/06/22 07:50:16;;;;;;;8.23;5.60;;;;;;;;;;5024134;28;20033;-74
2022/06/22 07:52:49;;;;;;;7.00;5.53;;;;;;;;;;5029774;28;20104;-73
2022/06/22 07:55:14;;;;;;;8.55;5.32;;;;;;;;;;5029993;28;20045;-72
2022/06/22 07:58:24;;;;;;;7.38;5.35;;;;;;;;;;5029294;28;20030;-75
2022/06/22 08:00:55;;;;;;;8.38;6.00;;;;;;;;;;5017361;28;20049;-74
2022/06/22 08:03:25;;;;;;;10.57;5.18;;;;;;;;;;5032130;28;20025;-72
2022/06/22 08:05:53;;;;;;;7.13;5.07;;;;;;;;;;5035558;28;20067;-75
2022/06/22 08:08:24;;;;;;;8.15;5.30;;;;;;;;;;5032254;28;20025;-75
2022/06/22 08:11:28;;;;;;;6.57;5.05;;;;;;;;;;5030299;28;20083;-75
2022/06/22 08:14:05;;;;;;;7.68;5.00;;;;;;;;;;5025873;28;20103;-75
2022/06/22 08:16:39;;;;;;;6.80;4.70;;;;;;;;;;5030662;28;20025;-75
2022/06/22 08:19:06;;;;;;;6.57;4.43;;;;;;;;;;5027086;28;20051;-75
2022/06/22 08:21:36;;;;;;;6.95;4.72;;;;;;;;;;5028841;28;20424;-74
2022/06/22 08:24:03;;;;;;;6.55;4.35;;;;;;;;;;5026839;28;20026;-75
2022/06/22 08:26:31;;;;;;;6.32;4.35;;;;;;;;;;5030535;28;20022;-73
2022/06/22 08:28:58;;;;;;;6.38;4.22;;;;;;;;;;5028772;28;20462;-74
2022/06/22 08:31:32;;;;;;;9.52;4.70;;;;;;;;;;5034048;28;20029;-75
2022/06/22 08:34:02;;;;;;;7.18;4.43;;;;;;;;;;5027740;28;20537;-72
2022/06/22 08:36:31;;;;;;;5.95;3.53;;;;;;;;;;5031525;28;20044;-75
2022/06/22 08:39:06;;;;;;;6.18;3.83;;;;;;;;;;5029612;28;20033;-75
2022/06/22 08:41:49;;;;;;;6.03;3.80;;;;;;;;;;5026071;28;20100;-75
2022/06/22 08:44:35;;;;;;;6.53;3.80;;;;;;;;;;5028756;28;20100;-74
2022/06/22 08:47:25;;;;;;;6.28;3.70;;;;;;;;;;5029748;28;20025;-73
2022/06/22 08:50:12;;;;;;;11.25;4.57;;;;;;;;;;5026228;28;20108;-75
2022/06/22 08:52:46;;;;;;;5.88;3.53;;;;;;;;;;5025912;28;20466;-72
2022/06/22 08:55:23;;;;;;;5.93;3.35;;;;;;;;;;5024519;28;20061;-75
2022/06/22 08:57:57;;;;;;;6.13;3.67;;;;;;;;;;5025961;28;20033;-75
2022/06/22 09:00:49;;;;;;;4.15;3.20;;;;;;;;;;5024954;28;20025;-76
2022/06/22 09:03:53;;;;;;;4.43;2.97;;;;;;;;;;5023333;28;20516;-74
2022/06/22 09:06:39;;;;;;;4.00;2.50;;;;;;;;;;5025325;28;20025;-73
2022/06/22 09:09:11;;;;;;;5.57;2.42;;;;;;;;;;5027863;28;20033;-75
2022/06/22 09:11:54;;;;;;;5.15;2.70;;;;;;;;;;5026332;28;20425;-75
2022/06/22 09:14:49;;;;;;;5.35;2.50;;;;;;;;;;5026241;28;20056;-75
2022/06/22 09:17:37;;;;;;;5.03;2.15;;;;;;;;;;5026869;28;20072;-75
2022/06/22 09:20:28;;;;;;;5.78;2.47;;;;;;;;;;5038337;28;20029;-75
2022/06/22 09:22:56;;;;;;;3.53;2.00;;;;;;;;;;5028985;28;20025;-75
2022/06/22 09:25:28;;;;;;;4.60;2.25;;;;;;;;;;5028513;28;20136;-75
2022/06/22 09:28:16;;;;;;;4.35;2.47;;;;;;;;;;5026843;28;20115;-73
2022/06/22 09:30:59;;;;;;;3.95;2.30;;;;;;;;;;5023301;28;20037;-74
2022/06/22 09:33:51;;;;;;;5.40;2.92;;;;;;;;;;5027310;28;20033;-73
2022/06/22 09:36:54;;;;;;;3.83;1.88;;;;;;;;;;5027441;28;20050;-74
2022/06/22 09:39:40;;;;;;;4.68;2.00;;;;;;;;;;5029541;28;20116;-76
2022/06/22 09:42:48;;;;;;;6.60;2.20;;;;;;;;;;5007676;28;20065;-73
2022/06/22 09:45:22;;;;;;;3.47;2.30;;;;;;;;;;5025472;28;20029;-73
2022/06/22 09:48:03;;;;;;;5.28;2.45;;;;;;;;;;5028831;28;20561;-75
2022/06/22 09:50:38;;;;;;;6.18;2.50;;;;;;;;;;5027013;28;20033;-75
2022/06/22 09:53:27;;;;;;;4.28;2.15;;;;;;;;;;5026185;28;20461;-75
2022/06/22 09:56:30;;;;;;;4.78;1.85;;;;;;;;;;5025822;28;20502;-76
2022/06/22 09:58:55;;;;;;;3.25;1.80;;;;;;;;;;5024359;28;20025;-75
2022/06/22 10:01:32;;;;;;;4.32;1.80;;;;;;;;;;5032975;28;20025;-76
2022/06/22 10:04:03;;;;;;;3.92;1.92;;;;;;;;;;5030406;28;20036;-75
2022/06/22 10:06:32;;;;;;;2.47;1.60;;;;;;;;;;5032305;28;20024;-73
2022/06/22 10:09:06;;;;;;;3.42;2.00;;;;;;;;;;5030064;28;20645;-75
2022/06/22 10:11:44;;;;;;;2.63;2.00;;;;;;;;;;5032284;28;20035;-75
2022/06/22 10:14:40;;;;;;;3.75;2.05;;;;;;;;;;5031546;28;20041;-74
2022/06/22 10:17:25;;;;;;;3.67;1.70;;;;;;;;;;5032249;28;20030;-75
2022/06/22 10:20:22;;;;;;;2.85;1.50;;;;;;;;;;5032324;28;20127;-75
2022/06/22 10:22:54;;;;;;;3.78;1.65;;;;;;;;;;5029468;28;20043;-75
2022/06/22 10:25:22;;;;;;;4.75;1.70;;;;;;;;;;5030504;28;20029;-75
2022/06/22 10:28:25;;;;;;;3.03;1.55;;;;;;;;;;5028189;28;20112;-75
2022/06/22 10:31:15;;;;;;;3.00;1.50;;;;;;;;;;4991431;28;20048;-75
2022/06/22 10:34:18;;;;;;;4.03;1.75;;;;;;;;;;5033964;28;20088;-75
2022/06/22 10:36:55;;;;;;;5.53;1.98;;;;;;;;;;5031243;28;20120;-74
2022/06/22 10:39:35;;;;;;;2.95;1.65;;;;;;;;;;5030964;28;20029;-76
2022/06/22 10:45:33;;;;;;;2.58;1.40;;;;;;;;;;5027507;28;20134;-75
2022/06/22 10:48:25;;;;;;;3.65;1.48;;;;;;;;;;5031094;28;20090;-77
2022/06/22 10:51:14;;;;;;;4.05;1.80;;;;;;;;;;5020574;28;20052;-74
2022/06/22 10:53:58;;;;;;;4.07;1.70;;;;;;;;;;5029327;28;20030;-75
2022/06/22 10:57:00;;;;;;;3.95;1.50;;;;;;;;;;5031212;28;20608;-75
2022/06/22 10:59:44;;;;;;;3.03;1.30;;;;;;;;;;5031324;28;20030;-74
2022/06/22 11:02:26;;;;;;;2.17;1.20;;;;;;;;;;5030801;28;20021;-75
2022/06/22 11:05:59;;;;;;;3.00;1.33;;;;;;;;;;5027372;28;21403;-75
2022/06/22 11:08:51;;;;;;;2.20;1.30;;;;;;;;;;4944193;28;20073;-75
2022/06/22 11:11:35;;;;;;;1.70;1.02;;;;;;;;;;4961624;28;20129;-74
2022/06/22 11:14:27;;;;;;;3.13;1.20;;;;;;;;;;5012433;28;20049;-74
2022/06/22 11:17:26;;;;;;;1.75;0.90;;;;;;;;;;5022796;28;20030;-72
2022/06/22 11:20:03;;;;;;;2.63;1.10;;;;;;;;;;5020772;28;20029;-75
2022/06/22 11:22:51;;;;;;;2.95;1.50;;;;;;;;;;5026785;28;20040;-73
2022/06/22 11:32:08;;;;;;;2.92;1.35;;;;;;;;;;5019987;28;20072;-72
2022/06/22 11:35:00;;;;;;;2.08;1.10;;;;;;;;;;5026450;28;20049;-71
2022/06/22 11:37:45;;;;;;;1.65;1.10;;;;;;;;;;5021006;28;20120;-75
2022/06/22 11:40:38;;;;;;;3.45;1.00;;;;;;;;;;5018587;28;20048;-73
2022/06/22 11:43:29;;;;;;;2.95;1.30;;;;;;;;;;5027267;28;20531;-75
2022/06/22 11:46:08;;;;;;;2.67;1.33;;;;;;;;;;5019994;28;20457;-74
2022/06/22 11:48:56;;;;;;;1.52;1.15;;;;;;;;;;5018461;28;20074;-75
2022/06/22 11:51:48;;;;;;;3.15;1.40;;;;;;;;;;5022979;28;20041;-75
2022/06/22 11:54:29;;;;;;;2.67;1.25;;;;;;;;;;5024379;28;20028;-75
2022/06/22 11:56:57;;;;;;;2.10;0.93;;;;;;;;;;5026963;28;20123;-75
2022/06/22 11:59:29;;;;;;;2.33;1.00;;;;;;;;;;5025782;28;20120;-75
2022/06/22 12:02:18;;;;;;;1.83;0.90;;;;;;;;;;5027237;28;20071;-75
2022/06/22 12:05:48;;;;;;;2.40;1.00;;;;;;;;;;5025817;28;20053;-75
2022/06/22 12:08:51;;;;;;;3.13;1.00;;;;;;;;;;4974765;28;20034;-75
2022/06/22 12:11:38;;;;;;;1.63;1.00;;;;;;;;;;5031110;28;20018;-75
2022/06/22 12:17:38;;;;;;;2.63;1.00;;;;;;;;;;5028490;28;20444;-74
2022/06/22 12:20:25;;;;;;;1.45;0.80;;;;;;;;;;5030437;28;20057;-72
2022/06/22 12:23:12;;;;;;;2.33;0.90;;;;;;;;;;5029689;28;20112;-75
2022/06/22 12:26:12;;;;;;;1.63;0.93;;;;;;;;;;5027382;28;20036;-75
2022/06/22 12:28:38;;;;;;;1.67;1.10;;;;;;;;;;5028493;28;20025;-73
2022/06/22 12:31:15;;;;;;;2.08;1.00;;;;;;;;;;5027490;28;20029;-75
2022/06/22 12:33:48;;;;;;;2.40;1.00;;;;;;;;;;5026823;28;20037;-74
2022/06/22 12:36:18;;;;;;;;;;;;;;;;;;5029084;28;20589;-76
2022/06/22 12:38:48;;;;;;;2.30;1.10;;;;;;;;;;5023580;28;20340;-76
2022/06/22 12:41:44;;;;;;;2.42;1.05;;;;;;;;;;5023686;28;20037;-74
2022/06/22 12:44:31;;;;;;;2.50;1.23;;;;;;;;;;5021735;28;20478;-73
2022/06/22 12:47:19;;;;;;;1.55;1.05;;;;;;;;;;5029070;28;20083;-73
2022/06/22 12:50:09;;;;;;;2.20;1.08;;;;;;;;;;5003311;28;20609;-73
2022/06/22 12:52:41;;;;;;;2.92;1.00;;;;;;;;;;5027903;28;20026;-74
2022/06/22 12:55:16;;;;;;;3.08;1.23;;;;;;;;;;5025554;28;20037;-74
2022/06/22 12:57:49;;;;;;;2.42;1.23;;;;;;;;;;5027736;28;20386;-76
2022/06/22 13:00:21;;;;;;;2.45;1.00;;;;;;;;;;5025706;28;20101;-72
2022/06/22 13:02:49;;;;;;;1.88;1.10;;;;;;;;;;5025246;28;20034;-71
2022/06/22 13:05:19;;;;;;;2.78;1.00;;;;;;;;;;5028058;28;20485;-75
2022/06/22 13:07:50;;;;;;;3.30;1.30;;;;;;;;;;5024024;28;20095;-74
2022/06/22 13:10:24;;;;;;;2.65;1.00;;;;;;;;;;5027080;28;20424;-72
2022/06/22 13:13:13;;;;;;;4.50;1.17;;;;;;;;;;5019880;28;20033;-74
2022/06/22 13:15:46;;;;;;;1.85;1.10;;;;;;;;;;5016352;28;20034;-73
2022/06/22 13:18:24;;;;;;;1.83;1.10;;;;;;;;;;5017116;28;20033;-72
2022/06/22 13:21:04;;;;;;;1.90;1.05;;;;;;;;;;5017609;28;20044;-73
2022/06/22 13:23:36;;;;;;;3.35;1.25;;;;;;;;;;5013462;28;20383;-72
2022/06/22 13:26:25;;;;;;;2.03;1.13;;;;;;;;;;5019574;28;20091;-71
2022/06/22 13:29:05;;;;;;;3.90;1.17;;;;;;;;;;5017996;28;20033;-72
2022/06/22 13:31:35;;;;;;;3.05;1.10;;;;;;;;;;5020740;28;20025;-73
2022/06/22 13:34:05;;;;;;;3.53;1.13;;;;;;;;;;5019209;28;20072;-72
2022/06/22 13:36:46;;;;;;;1.75;0.90;;;;;;;;;;5016712;28;20068;-74
2022/06/22 13:39:23;;;;;;;2.30;1.10;;;;;;;;;;5023728;28;20034;-75
2022/06/22 13:42:13;;;;;;;1.10;0.73;;;;;;;;;;5013784;28;20029;-73
2022/06/22 13:44:47;;;;;;;1.77;1.00;;;;;;;;;;5022716;28;20033;-72
2022/06/22 13:48:02;;;;;;;3.45;1.00;;;;;;;;;;5024209;28;20048;-74
2022/06/22 13:51:51;;;;;;;2.45;1.10;;;;;;;;;;5020208;28;20037;-71
2022/06/22 13:54:13;;;;;;;2.13;1.00;;;;;;;;;;5034529;28;20510;-74
2022/06/22 13:57:40;;;;;;;3.67;1.00;;;;;;;;;;5027017;28;20025;-74
2022/06/22 14:00:13;;;;;;;1.60;0.90;;;;;;;;;;4974196;28;20076;-72
2022/06/22 14:02:45;;;;;;;2.35;0.95;;;;;;;;;;4970217;28;20037;-72
2022/06/22 14:05:34;;;;;;;1.60;0.90;;;;;;;;;;5007100;28;20091;-75
2022/06/22 14:08:22;;;;;;;1.35;0.82;;;;;;;;;;5022143;28;20392;-72
2022/06/22 14:11:01;;;;;;;2.35;0.88;;;;;;;;;;5022949;28;20044;-75
2022/06/22 14:13:33;;;;;;;3.17;1.10;;;;;;;;;;5019872;28;20040;-74
2022/06/22 14:16:14;;;;;;;2.60;1.00;;;;;;;;;;5018936;28;20021;-75
2022/06/22 14:18:51;;;;;;;2.20;0.90;;;;;;;;;;5020983;28;20033;-74
2022/06/22 14:21:32;;;;;;;1.05;0.65;;;;;;;;;;5023097;28;20407;-73
2022/06/22 14:24:07;;;;;;;2.65;1.10;;;;;;;;;;5025214;28;20743;-76
2022/06/22 14:27:03;;;;;;;1.92;1.10;;;;;;;;;;5019516;28;20550;-75
2022/06/22 14:29:57;;;;;;;1.92;0.90;;;;;;;;;;5023643;28;20063;-75
2022/06/22 14:32:50;;;;;;;3.47;1.00;;;;;;;;;;5013167;28;20065;-72
2022/06/22 14:35:34;;;;;;;2.08;1.10;;;;;;;;;;5013161;28;20065;-75
2022/06/22 14:37:59;;;;;;;1.77;0.90;;;;;;;;;;5018366;28;20037;-73
2022/06/22 14:40:40;;;;;;;3.10;0.93;;;;;;;;;;5011250;28;20132;-74
2022/06/22 14:43:27;;;;;;;1.65;0.90;;;;;;;;;;5025306;28;20032;-74
2022/06/22 14:46:29;;;;;;;2.08;0.90;;;;;;;;;;5016771;28;20470;-75
2022/06/22 14:49:15;;;;;;;1.52;1.00;;;;;;;;;;5003645;28;20107;-74
2022/06/22 14:51:57;;;;;;;1.83;0.90;;;;;;;;;;5017498;28;20033;-74
2022/06/22 14:54:29;;;;;;;1.92;1.00;;;;;;;;;;5018307;28;20025;-77
2022/06/22 14:57:01;;;;;;;3.25;1.00;;;;;;;;;;5014865;28;20121;-76
2022/06/22 14:59:32;;;;;;;2.60;0.90;;;;;;;;;;5015442;28;20313;-75
2022/06/22 15:02:11;;;;;;;1.73;0.77;;;;;;;;;;5018227;28;20052;-74
2022/06/22 15:04:54;;;;;;;1.20;0.80;;;;;;;;;;5015233;28;20033;-75
2022/06/22 15:08:01;;;;;;;1.40;0.80;;;;;;;;;;5014038;28;20657;-76
2022/06/22 15:10:44;;;;;;;1.35;0.90;;;;;;;;;;5012593;28;20068;-76
2022/06/22 15:13:12;;;;;;;3.08;0.80;;;;;;;;;;5019799;28;20033;-74
2022/06/22 15:16:04;;;;;;;0.98;0.70;;;;;;;;;;5020178;28;20021;-77
2022/06/22 15:18:39;;;;;;;2.25;0.80;;;;;;;;;;5012909;28;20040;-74
2022/06/22 15:21:10;;;;;;;1.88;0.80;;;;;;;;;;5018725;28;20029;-76
2022/06/22 15:23:42;;;;;;;3.55;0.88;;;;;;;;;;5021297;28;20033;-74
2022/06/22 15:26:21;;;;;;;2.75;0.90;;;;;;;;;;5014979;28;20524;-76
2022/06/22 15:29:02;;;;;;;2.20;0.80;;;;;;;;;;5020052;28;20477;-75
2022/06/22 15:31:52;;;;;;;1.83;0.98;;;;;;;;;;5017398;28;20033;-77
2022/06/22 15:35:14;;;;;;;2.80;0.77;;;;;;;;;;5019905;28;20021;-75
2022/06/22 15:38:17;;;;;;;2.05;0.82;;;;;;;;;;4959331;28;20030;-75
2022/06/22 15:41:00;;;;;;;1.23;0.82;;;;;;;;;;4935001;28;20042;-75
2022/06/22 15:44:07;;;;;;;2.53;0.88;;;;;;;;;;5021214;28;20039;-75
2022/06/22 15:47:12;;;;;;;1.92;1.05;;;;;;;;;;5018589;28;20504;-77
2022/06/22 15:50:15;;;;;;;3.15;0.90;;;;;;;;;;5017562;28;20465;-75
2022/06/22 15:52:49;;;;;;;2.20;0.90;;;;;;;;;;5021654;28;20032;-75
2022/06/22 15:55:34;;;;;;;2.13;1.00;;;;;;;;;;5022186;28;21347;-74
2022/06/22 15:58:20;;;;;;;1.95;0.80;;;;;;;;;;5022262;28;20112;-75
2022/06/22 16:01:02;;;;;;;1.70;0.80;;;;;;;;;;5021559;28;20099;-75
2022/06/22 16:03:46;;;;;;;3.97;0.70;;;;;;;;;;5026368;28;20030;-76
2022/06/22 16:06:25;;;;;;;2.72;0.90;;;;;;;;;;5022808;28;20504;-75
2022/06/22 16:09:04;;;;;;;1.42;0.90;;;;;;;;;;5018663;28;20078;-75
2022/06/22 16:14:25;;;;;;;2.58;0.77;;;;;;;;;;5018139;28;20387;-76
2022/06/22 16:17:16;;;;;;;1.27;0.70;;;;;;;;;;5015398;28;20025;-74
2022/06/22 16:20:09;;;;;;;1.30;0.88;;;;;;;;;;5019605;28;20045;-75
2022/06/22 16:22:44;;;;;;;2.00;1.10;;;;;;;;;;5017966;28;20033;-77
2022/06/22 16:25:14;;;;;;;1.77;1.00;;;;;;;;;;5017104;28;20044;-75
2022/06/22 16:28:15;;;;;;;1.23;0.80;;;;;;;;;;5020206;28;20087;-75